createdAt,value
2022-10-24T04:20:06.371Z,5.00
2022-10-24T04:21:06.310Z,5.00
2022-10-24T04:22:06.273Z,5.30
2022-10-24T04:23:06.223Z,4.90
2022-10-24T04:24:06.177Z,4.90
2022-10-24T04:25:06.123Z,5.60
2022-10-24T04:26:06.063Z,6.10
2022-10-24T04:27:05.993Z,5.50
2022-10-24T04:28:05.945Z,5.30
2022-10-24T04:29:05.884Z,5.50
2022-10-24T04:30:05.825Z,5.50
2022-10-24T04:31:05.763Z,5.80
2022-10-24T04:32:05.697Z,5.60
2022-10-24T04:33:05.626Z,5.80
2022-10-24T04:34:05.555Z,5.70
2022-10-24T04:35:05.489Z,4.60
2022-10-24T04:36:05.437Z,4.70
2022-10-24T04:37:05.347Z,4.80
2022-10-24T04:38:05.278Z,5.20
2022-10-24T04:39:05.215Z,4.60
2022-10-24T04:40:05.157Z,4.50
2022-10-24T04:41:07.323Z,4.60
2022-10-24T04:42:05.009Z,4.60
2022-10-24T04:43:04.936Z,5.80
2022-10-24T04:44:04.849Z,5.00
2022-10-24T04:45:04.770Z,5.10
2022-10-24T04:46:04.690Z,5.60
2022-10-24T04:47:04.637Z,5.50
2022-10-24T04:48:04.538Z,5.60
2022-10-24T04:49:04.460Z,5.30
2022-10-24T04:50:04.379Z,5.10
2022-10-24T04:51:04.291Z,5.40
2022-10-24T04:52:04.231Z,5.60
2022-10-24T04:53:04.142Z,5.80
2022-10-24T04:54:04.059Z,5.40
2022-10-24T04:55:03.982Z,5.40
2022-10-24T04:56:03.902Z,6.10
2022-10-24T04:57:03.823Z,5.60
2022-10-24T04:58:03.744Z,6.00
2022-10-24T04:59:03.661Z,5.80
2022-10-24T05:00:03.574Z,6.30
2022-10-24T05:01:03.541Z,6.00
2022-10-24T05:02:03.455Z,5.60
2022-10-24T05:03:03.334Z,5.70
2022-10-24T05:04:03.237Z,5.50
2022-10-24T05:05:03.145Z,5.60
2022-10-24T05:06:03.071Z,5.40
2022-10-24T05:07:02.997Z,6.00
2022-10-24T05:08:02.896Z,5.90
2022-10-24T05:09:02.808Z,5.60
2022-10-24T05:10:02.717Z,6.10
2022-10-24T05:11:02.625Z,5.50
2022-10-24T05:12:02.538Z,5.50
2022-10-24T05:13:02.458Z,5.40
2022-10-24T05:14:02.358Z,5.00
2022-10-24T05:15:02.270Z,6.00
2022-10-24T05:16:02.177Z,5.60
2022-10-24T05:17:02.080Z,5.40
2022-10-24T05:18:02.022Z,5.20
2022-10-24T05:19:01.907Z,5.50
2022-10-24T05:20:01.823Z,5.20
2022-10-24T05:21:01.730Z,6.60
2022-10-24T05:22:02.595Z,5.50
2022-10-24T05:23:01.592Z,6.10
2022-10-24T05:24:01.472Z,6.20
2022-10-24T05:25:01.391Z,6.10
2022-10-24T05:26:01.303Z,5.80
2022-10-24T05:27:01.201Z,5.60
2022-10-24T05:28:01.130Z,5.90
2022-10-24T05:29:01.057Z,5.90
2022-10-24T05:30:00.943Z,6.30
2022-10-24T05:31:00.853Z,6.10
2022-10-24T05:32:00.755Z,5.60
2022-10-24T05:33:00.674Z,5.60
2022-10-24T05:34:00.594Z,5.40
2022-10-24T05:35:00.497Z,5.70
2022-10-24T05:36:00.397Z,5.90
2022-10-24T05:37:00.308Z,5.60
2022-10-24T05:38:00.226Z,6.30
2022-10-24T05:39:00.146Z,5.80
2022-10-24T05:40:00.051Z,5.50
2022-10-24T05:40:59.947Z,5.30
2022-10-24T05:41:59.860Z,6.00
2022-10-24T05:42:59.766Z,5.90
2022-10-24T05:43:59.668Z,6.20
2022-10-24T05:44:59.597Z,5.90
2022-10-24T05:45:59.498Z,5.90
2022-10-24T05:46:59.381Z,6.20
2022-10-24T05:47:59.299Z,6.00
2022-10-24T05:48:59.211Z,6.50
2022-10-24T05:49:59.138Z,6.40
2022-10-24T05:50:59.012Z,5.90
2022-10-24T05:51:58.923Z,6.50
2022-10-24T05:52:58.821Z,6.10
2022-10-24T05:53:58.817Z,6.50
2022-10-24T05:55:06.764Z,5.90
2022-10-24T05:55:59.521Z,6.80
2022-10-24T05:56:58.415Z,5.90
2022-10-24T05:57:58.319Z,6.10
2022-10-24T05:58:58.224Z,6.70
2022-10-24T05:59:58.181Z,6.40
2022-10-24T06:00:58.041Z,5.80
2022-10-24T06:01:58.098Z,6.70
2022-10-24T06:02:57.827Z,7.70
2022-10-24T06:03:57.725Z,7.70
2022-10-24T06:04:57.635Z,7.80
2022-10-24T06:05:57.556Z,7.50
2022-10-24T06:06:57.436Z,7.40
2022-10-24T06:07:57.355Z,7.30
2022-10-24T06:08:57.263Z,6.90
2022-10-24T06:09:57.149Z,7.30
2022-10-24T06:10:57.057Z,7.00
2022-10-24T06:11:56.939Z,7.50
2022-10-24T06:12:56.857Z,7.00
2022-10-24T06:13:56.749Z,7.50
2022-10-24T06:14:56.658Z,7.20
2022-10-24T06:15:56.569Z,7.10
2022-10-24T06:16:56.459Z,7.30
2022-10-24T06:17:56.359Z,6.90
2022-10-24T06:18:56.266Z,7.30
2022-10-24T06:19:56.158Z,7.70
2022-10-24T06:20:56.247Z,7.10
2022-10-24T06:21:55.961Z,6.80
2022-10-24T06:22:55.871Z,6.90
2022-10-24T06:23:55.762Z,7.40
2022-10-24T06:24:55.671Z,7.20
2022-10-24T06:25:55.592Z,7.10
2022-10-24T06:26:55.489Z,7.20
2022-10-24T06:27:55.427Z,6.70
2022-10-24T06:28:55.292Z,6.70
2022-10-24T06:29:55.193Z,6.60
2022-10-24T06:30:55.114Z,7.30
2022-10-24T06:31:55.004Z,6.60
2022-10-24T06:32:54.924Z,7.60
2022-10-24T06:33:54.815Z,6.90
2022-10-24T06:34:54.725Z,6.70
2022-10-24T06:35:54.657Z,6.80
2022-10-24T06:36:54.536Z,6.70
2022-10-24T06:37:54.958Z,7.00
2022-10-24T06:38:54.356Z,7.00
2022-10-24T06:39:54.264Z,6.50
2022-10-24T06:40:54.177Z,6.50
2022-10-24T06:41:54.093Z,6.80
2022-10-24T06:42:53.985Z,6.90
2022-10-24T06:43:53.880Z,6.60
2022-10-24T06:44:53.814Z,7.10
2022-10-24T06:45:53.686Z,6.80
2022-10-24T06:46:53.575Z,6.20
2022-10-24T06:47:54.509Z,6.50
2022-10-24T06:48:53.379Z,6.70
2022-10-24T06:49:53.290Z,7.10
2022-10-24T06:50:53.200Z,7.20
2022-10-24T06:51:53.091Z,6.60
2022-10-24T06:52:53.001Z,6.80
2022-10-24T06:53:52.898Z,6.80
2022-10-24T06:54:52.801Z,7.10
2022-10-24T06:55:52.702Z,6.90
2022-10-24T06:56:52.612Z,6.90
2022-10-24T06:57:52.493Z,7.70
2022-10-24T06:58:52.414Z,6.60
2022-10-24T06:59:52.303Z,7.00
2022-10-24T07:00:52.264Z,6.60
2022-10-24T07:02:01.853Z,6.50
2022-10-24T07:02:53.029Z,6.70
2022-10-24T07:03:51.927Z,6.40
2022-10-24T07:04:51.827Z,5.70
2022-10-24T07:05:51.717Z,6.00
2022-10-24T07:06:51.651Z,6.10
2022-10-24T07:07:51.542Z,6.00
2022-10-24T07:08:51.426Z,5.50
2022-10-24T07:09:51.317Z,5.50
2022-10-24T07:10:51.228Z,5.90
2022-10-24T07:11:51.149Z,5.90
2022-10-24T07:12:51.035Z,5.90
2022-10-24T07:13:50.917Z,5.80
2022-10-24T07:14:50.828Z,5.60
2022-10-24T07:15:50.739Z,5.60
2022-10-24T07:16:50.628Z,5.90
2022-10-24T07:17:50.539Z,5.60
2022-10-24T07:18:50.440Z,6.10
2022-10-24T07:19:50.327Z,5.70
2022-10-24T07:20:50.254Z,5.70
2022-10-24T07:21:50.138Z,5.70
2022-10-24T07:22:50.050Z,5.90
2022-10-24T07:23:49.934Z,5.20
2022-10-24T07:24:49.840Z,5.90
2022-10-24T07:25:49.732Z,5.60
2022-10-24T07:26:49.632Z,5.70
2022-10-24T07:27:49.564Z,6.20
2022-10-24T07:28:49.470Z,5.70
2022-10-24T07:29:49.333Z,5.70
2022-10-24T07:30:49.243Z,6.10
2022-10-24T07:31:49.136Z,5.50
2022-10-24T07:32:49.085Z,5.20
2022-10-24T07:33:48.955Z,6.00
2022-10-24T07:34:48.870Z,5.60
2022-10-24T07:35:48.775Z,5.30
2022-10-24T07:36:48.662Z,5.30
2022-10-24T07:37:48.710Z,5.20
2022-10-24T07:38:48.470Z,5.00
2022-10-24T07:39:48.347Z,5.30
2022-10-24T07:40:48.259Z,5.10
2022-10-24T07:41:48.146Z,5.20
2022-10-24T07:42:48.059Z,5.00
2022-10-24T07:43:47.966Z,4.90
2022-10-24T07:44:47.867Z,5.20
2022-10-24T07:45:50.645Z,5.30
2022-10-24T07:46:47.648Z,4.80
2022-10-24T07:47:47.781Z,5.10
2022-10-24T07:48:47.487Z,4.80
2022-10-24T07:49:47.349Z,4.40
2022-10-24T07:50:47.269Z,5.00
2022-10-24T07:51:47.160Z,4.40
2022-10-24T07:52:47.072Z,4.90
2022-10-24T07:53:46.982Z,4.70
2022-10-24T07:54:46.871Z,4.30
2022-10-24T07:55:46.763Z,4.80
2022-10-24T07:56:46.651Z,4.80
2022-10-24T07:57:47.058Z,4.90
2022-10-24T07:58:46.473Z,4.80
2022-10-24T07:59:46.331Z,5.00
2022-10-24T08:00:46.245Z,5.90
2022-10-24T08:01:46.207Z,5.80
2022-10-24T08:02:46.237Z,6.50
2022-10-24T08:03:45.914Z,6.90
2022-10-24T08:04:45.835Z,6.60
2022-10-24T08:05:45.725Z,7.60
2022-10-24T08:06:45.615Z,8.20
2022-10-24T08:07:55.731Z,7.80
2022-10-24T08:08:46.417Z,7.40
2022-10-24T08:09:45.347Z,6.50
2022-10-24T08:10:45.206Z,11.10
2022-10-24T08:11:45.106Z,11.40
2022-10-24T08:12:45.288Z,12.00
2022-10-24T08:13:44.890Z,10.50
2022-10-24T08:14:44.818Z,11.50
2022-10-24T08:15:44.708Z,10.60
2022-10-24T08:16:44.589Z,9.90
2022-10-24T08:17:44.494Z,11.30
2022-10-24T08:18:44.415Z,9.20
2022-10-24T08:19:44.559Z,9.40
2022-10-24T08:20:44.191Z,9.50
2022-10-24T08:21:44.100Z,10.20
2022-10-24T08:22:44.310Z,10.60
2022-10-24T08:23:43.911Z,10.00
2022-10-24T08:24:43.835Z,10.30
2022-10-24T08:25:43.703Z,11.80
2022-10-24T08:26:43.611Z,13.60
2022-10-24T08:28:43.414Z,12.90
2022-10-24T08:29:43.311Z,9.80
2022-10-24T08:30:43.267Z,5.20
2022-10-24T08:31:43.140Z,4.00
2022-10-24T08:32:43.308Z,4.00
2022-10-24T08:33:42.934Z,2.70
2022-10-24T08:34:42.834Z,2.10
2022-10-24T08:35:42.764Z,1.60
2022-10-24T08:36:42.657Z,1.40
2022-10-24T08:37:42.547Z,2.20
2022-10-24T08:38:42.464Z,2.70
2022-10-24T08:39:42.346Z,3.60
2022-10-24T08:40:42.267Z,4.00
2022-10-24T08:41:42.159Z,4.00
2022-10-24T08:42:42.085Z,4.00
2022-10-24T08:43:41.967Z,4.60
2022-10-24T08:44:41.877Z,5.20
2022-10-24T08:45:41.800Z,5.60
2022-10-24T08:46:41.686Z,5.10
2022-10-24T08:47:41.616Z,4.80
2022-10-24T08:48:41.557Z,4.50
2022-10-24T08:49:42.477Z,3.70
2022-10-24T08:50:41.339Z,3.90
2022-10-24T08:51:41.209Z,3.80
2022-10-24T08:52:41.143Z,3.80
2022-10-24T08:53:41.039Z,4.60
2022-10-24T08:54:40.961Z,4.70
2022-10-24T08:55:49.657Z,4.90
2022-10-24T08:56:41.799Z,5.30
2022-10-24T08:57:40.769Z,5.40
2022-10-24T08:58:40.610Z,5.70
2022-10-24T08:59:40.522Z,5.10
2022-10-24T09:00:40.431Z,5.10
2022-10-24T09:01:40.467Z,5.30
2022-10-24T09:02:40.376Z,5.60
2022-10-24T09:03:56.169Z,4.70
2022-10-24T09:04:41.102Z,5.10
2022-10-24T09:05:40.014Z,4.80
2022-10-24T09:06:39.935Z,4.90
2022-10-24T09:07:39.836Z,5.00
2022-10-24T09:08:39.768Z,5.40
2022-10-24T09:09:39.657Z,5.60
2022-10-24T09:10:39.585Z,5.40
2022-10-24T09:11:39.508Z,4.60
2022-10-24T09:12:39.405Z,5.50
2022-10-24T09:13:39.297Z,5.10
2022-10-24T09:14:39.250Z,5.50
2022-10-24T09:15:39.137Z,5.20
2022-10-24T09:16:39.086Z,5.60
2022-10-24T09:17:38.969Z,5.60
2022-10-24T09:18:38.925Z,10.50
2022-10-24T09:19:38.799Z,5.80
2022-10-24T09:20:38.729Z,5.30
2022-10-24T09:21:38.626Z,4.90
2022-10-24T09:22:40.793Z,5.10
2022-10-24T09:23:39.470Z,5.10
2022-10-24T09:24:38.396Z,5.70
2022-10-24T09:25:38.302Z,5.20
2022-10-24T09:26:38.221Z,5.60
2022-10-24T09:27:38.151Z,5.60
2022-10-24T09:28:38.061Z,5.70
2022-10-24T09:29:37.979Z,5.90
2022-10-24T09:30:37.896Z,5.60
2022-10-24T09:31:37.801Z,5.60
2022-10-24T09:32:37.746Z,5.40
2022-10-24T09:33:37.643Z,6.10
2022-10-24T09:34:37.567Z,5.90
2022-10-24T09:35:37.483Z,6.20
2022-10-24T09:36:37.397Z,6.20
2022-10-24T09:37:42.554Z,6.10
2022-10-24T09:38:38.237Z,6.50
2022-10-24T09:39:37.145Z,6.70
2022-10-24T09:40:37.065Z,8.20
2022-10-24T09:41:36.986Z,8.30
2022-10-24T09:42:36.968Z,8.40
2022-10-24T09:43:36.805Z,8.40
2022-10-24T09:44:36.727Z,8.50
2022-10-24T09:45:36.629Z,8.60
2022-10-24T09:46:36.534Z,8.50
2022-10-24T09:47:36.446Z,8.90
2022-10-24T09:48:36.378Z,8.20
2022-10-24T09:49:36.263Z,7.80
2022-10-24T09:50:36.193Z,8.30
2022-10-24T09:51:36.105Z,8.30
2022-10-24T09:52:36.009Z,8.40
2022-10-24T09:53:35.939Z,8.70
2022-10-24T09:54:35.826Z,7.90
2022-10-24T09:55:35.739Z,8.20
2022-10-24T09:56:35.649Z,8.70
2022-10-24T09:57:35.562Z,8.50
2022-10-24T09:58:35.491Z,8.40
2022-10-24T09:59:35.380Z,9.00
2022-10-24T10:00:35.281Z,8.70
2022-10-24T10:01:35.292Z,8.80
2022-10-24T10:02:35.112Z,8.80
2022-10-24T10:03:35.025Z,8.40
2022-10-24T10:04:34.919Z,8.10
2022-10-24T10:05:34.821Z,9.70
2022-10-24T10:06:34.713Z,8.90
2022-10-24T10:07:34.649Z,8.60
2022-10-24T10:08:34.543Z,8.60
2022-10-24T10:09:34.463Z,7.30
2022-10-24T10:10:34.334Z,7.10
2022-10-24T10:11:35.205Z,6.50
2022-10-24T10:12:34.157Z,5.90
2022-10-24T10:13:34.055Z,6.70
2022-10-24T10:14:33.976Z,6.20
2022-10-24T10:15:33.862Z,6.30
2022-10-24T10:16:33.819Z,6.60
2022-10-24T10:17:33.669Z,5.70
2022-10-24T10:18:33.586Z,5.70
2022-10-24T10:19:33.476Z,6.00
2022-10-24T10:20:33.365Z,5.70
2022-10-24T10:21:33.279Z,6.10
2022-10-24T10:22:33.176Z,6.60
2022-10-24T10:23:33.097Z,5.30
2022-10-24T10:24:32.997Z,5.30
2022-10-24T10:25:32.890Z,5.00
2022-10-24T10:26:32.793Z,5.30
2022-10-24T10:27:32.681Z,5.30
2022-10-24T10:28:32.579Z,5.50
2022-10-24T10:29:32.502Z,6.00
2022-10-24T10:30:32.390Z,6.00
2022-10-24T10:31:32.283Z,6.00
2022-10-24T10:32:32.185Z,6.30
2022-10-24T10:33:32.113Z,6.20
2022-10-24T10:34:32.009Z,7.00
2022-10-24T10:35:31.891Z,6.90
2022-10-24T10:36:31.789Z,7.80
2022-10-24T10:37:31.692Z,7.40
2022-10-24T10:38:31.586Z,7.10
2022-10-24T10:39:31.488Z,7.70
2022-10-24T10:40:31.400Z,6.90
2022-10-24T10:41:31.274Z,6.00
2022-10-24T10:42:31.177Z,6.30
2022-10-24T10:43:31.068Z,6.90
2022-10-24T10:44:30.954Z,6.90
2022-10-24T10:45:30.865Z,6.40
2022-10-24T10:46:30.732Z,6.60
2022-10-24T10:47:30.636Z,6.90
2022-10-24T10:48:30.532Z,6.80
2022-10-24T10:49:30.425Z,6.90
2022-10-24T10:50:30.328Z,6.10
2022-10-24T10:51:30.209Z,6.00
2022-10-24T10:52:30.098Z,5.60
2022-10-24T10:53:29.969Z,5.70
2022-10-24T10:54:29.858Z,5.60
2022-10-24T10:55:29.763Z,6.10
2022-10-24T10:56:29.656Z,5.60
2022-10-24T10:57:29.565Z,5.20
2022-10-24T10:58:29.488Z,4.90
2022-10-24T10:59:29.670Z,5.10
2022-10-24T11:00:29.240Z,4.80
2022-10-24T11:01:29.203Z,4.70
2022-10-24T11:02:29.015Z,4.90
2022-10-24T11:03:28.874Z,5.20
2022-10-24T11:04:28.775Z,7.20
2022-10-24T11:05:28.672Z,6.10
2022-10-24T11:06:28.533Z,6.20
2022-10-24T11:07:28.445Z,5.80
2022-10-24T11:08:28.328Z,6.00
2022-10-24T11:09:28.233Z,6.00
2022-10-24T11:10:28.134Z,6.30
2022-10-24T11:11:28.007Z,5.50
2022-10-24T11:12:27.895Z,5.60
2022-10-24T11:13:28.524Z,5.90
2022-10-24T11:14:27.686Z,5.80
2022-10-24T11:15:27.606Z,5.50
2022-10-24T11:16:27.488Z,6.00
2022-10-24T11:17:27.380Z,6.70
2022-10-24T11:18:30.387Z,5.40
2022-10-24T11:19:28.148Z,5.90
2022-10-24T11:20:27.039Z,5.40
2022-10-24T11:21:26.949Z,5.90
2022-10-24T11:22:26.817Z,5.70
2022-10-24T11:23:26.734Z,5.30
2022-10-24T11:24:26.609Z,5.50
2022-10-24T11:25:26.511Z,5.90
2022-10-24T11:26:26.419Z,5.50
2022-10-24T11:27:26.352Z,5.70
2022-10-24T11:28:26.196Z,6.20
2022-10-24T11:29:26.090Z,6.00
2022-10-24T11:30:25.978Z,5.70
2022-10-24T11:31:25.914Z,6.30
2022-10-24T11:32:25.763Z,5.60
2022-10-24T11:33:25.673Z,6.20
2022-10-24T11:34:25.551Z,6.80
2022-10-24T11:35:25.460Z,6.40
2022-10-24T11:36:25.364Z,6.20
2022-10-24T11:37:25.255Z,7.10
2022-10-24T11:38:25.154Z,6.80
2022-10-24T11:39:25.106Z,6.60
2022-10-24T11:40:25.006Z,6.20
2022-10-24T11:41:24.886Z,7.30
2022-10-24T11:42:24.755Z,6.20
2022-10-24T11:43:24.680Z,6.50
2022-10-24T11:44:24.546Z,6.90
2022-10-24T11:45:24.466Z,6.90
2022-10-24T11:46:24.368Z,6.40
2022-10-24T11:47:24.288Z,7.00
2022-10-24T11:48:24.177Z,6.60
2022-10-24T11:49:24.068Z,6.70
2022-10-24T11:50:25.707Z,6.80
2022-10-24T11:51:23.881Z,7.40
2022-10-24T11:52:23.806Z,7.20
2022-10-24T11:53:23.699Z,7.20
2022-10-24T11:54:23.618Z,7.40
2022-10-24T11:55:23.499Z,7.00
2022-10-24T11:56:26.252Z,7.20
2022-10-24T11:57:23.300Z,6.90
2022-10-24T11:58:23.189Z,7.20
2022-10-24T11:59:23.099Z,6.50
2022-10-24T12:00:22.993Z,6.60
2022-10-24T12:01:22.927Z,6.80
2022-10-24T12:02:22.870Z,7.00
2022-10-24T12:03:22.702Z,6.20
2022-10-24T12:04:22.612Z,6.40
2022-10-24T12:05:22.529Z,6.10
2022-10-24T12:06:22.447Z,6.20
2022-10-24T12:07:22.356Z,6.00
2022-10-24T12:08:22.216Z,6.00
2022-10-24T12:09:22.131Z,6.10
2022-10-24T12:10:22.045Z,6.70
2022-10-24T12:11:21.944Z,6.90
2022-10-24T12:12:21.834Z,6.80
2022-10-24T12:13:21.765Z,6.50
2022-10-24T12:14:21.659Z,7.40
2022-10-24T12:15:21.561Z,6.90
2022-10-24T12:16:21.459Z,6.70
2022-10-24T12:17:21.375Z,7.20
2022-10-24T12:18:21.275Z,7.70
2022-10-24T12:19:21.157Z,7.90
2022-10-24T12:20:21.059Z,6.70
2022-10-24T12:21:25.579Z,6.70
2022-10-24T12:22:21.992Z,6.70
2022-10-24T12:23:20.777Z,6.50
2022-10-24T12:24:20.670Z,6.40
2022-10-24T12:25:20.568Z,5.80
2022-10-24T12:26:20.469Z,5.80
2022-10-24T12:27:20.387Z,5.60
2022-10-24T12:28:20.292Z,5.20
2022-10-24T12:29:20.190Z,6.00
2022-10-24T12:30:20.087Z,5.30
2022-10-24T12:31:22.483Z,5.20
2022-10-24T12:32:20.899Z,4.90
2022-10-24T12:33:19.789Z,4.80
2022-10-24T12:34:19.703Z,4.60
2022-10-24T12:35:29.963Z,4.50
2022-10-24T12:36:20.486Z,5.00
2022-10-24T12:37:19.391Z,4.50
2022-10-24T12:38:19.282Z,5.10
2022-10-24T12:39:19.264Z,4.90
2022-10-24T12:40:19.085Z,5.00
2022-10-24T12:41:18.985Z,4.80
2022-10-24T12:42:18.874Z,4.70
2022-10-24T12:43:18.784Z,4.90
2022-10-24T12:44:18.696Z,5.40
2022-10-24T12:45:18.595Z,5.20
2022-10-24T12:46:22.868Z,4.90
2022-10-24T12:47:18.378Z,5.30
2022-10-24T12:48:18.283Z,5.10
2022-10-24T12:49:18.207Z,5.10
2022-10-24T12:50:18.087Z,4.90
2022-10-24T12:51:17.989Z,5.60
2022-10-24T12:52:17.877Z,5.50
2022-10-24T12:53:17.788Z,5.50
2022-10-24T12:54:17.709Z,6.00
2022-10-24T12:55:17.591Z,5.30
2022-10-24T12:56:20.143Z,5.80
2022-10-24T12:57:17.399Z,6.40
2022-10-24T12:58:17.290Z,6.80
2022-10-24T12:59:17.209Z,6.70
2022-10-24T13:00:17.080Z,6.50
2022-10-24T13:01:17.072Z,7.20
2022-10-24T13:02:24.018Z,8.00
2022-10-24T13:03:16.766Z,8.80
2022-10-24T13:04:16.666Z,8.40
2022-10-24T13:05:16.578Z,8.50
2022-10-24T13:06:16.469Z,8.40
2022-10-24T13:07:16.381Z,8.50
2022-10-24T13:08:16.260Z,9.00
2022-10-24T13:09:16.181Z,8.90
2022-10-24T13:10:16.079Z,9.60
2022-10-24T13:11:15.971Z,9.00
2022-10-24T13:12:15.899Z,9.30
2022-10-24T13:13:15.792Z,9.60
2022-10-24T13:14:15.691Z,9.50
2022-10-24T13:15:15.621Z,9.90
2022-10-24T13:16:15.492Z,10.80
2022-10-24T13:17:15.403Z,9.90
2022-10-24T13:18:15.302Z,11.10
2022-10-24T13:19:15.214Z,9.70
2022-10-24T13:20:15.121Z,9.60
2022-10-24T13:21:15.209Z,10.10
2022-10-24T13:22:14.906Z,10.80
2022-10-24T13:23:14.825Z,10.60
2022-10-24T13:24:14.704Z,10.30
2022-10-24T13:25:14.625Z,10.60
2022-10-24T13:26:14.512Z,11.30
2022-10-24T13:27:14.420Z,11.10
2022-10-24T13:28:14.302Z,10.10
2022-10-24T13:29:14.204Z,10.50
2022-10-24T13:30:14.126Z,10.40
2022-10-24T13:31:13.999Z,10.30
2022-10-24T13:32:15.356Z,10.80
2022-10-24T13:33:13.797Z,10.50
2022-10-24T13:34:13.715Z,10.10
2022-10-24T13:35:13.606Z,10.80
2022-10-24T13:36:13.488Z,10.20
2022-10-24T13:37:13.400Z,10.40
2022-10-24T13:38:13.379Z,10.90
2022-10-24T13:39:13.208Z,10.70
2022-10-24T13:40:13.118Z,10.60
2022-10-24T13:41:13.011Z,10.70
2022-10-24T13:42:12.916Z,10.70
2022-10-24T13:43:12.811Z,10.80
2022-10-24T13:44:12.711Z,11.20
2022-10-24T13:45:12.621Z,11.00
2022-10-24T13:46:13.336Z,11.20
2022-10-24T13:47:12.431Z,11.50
2022-10-24T13:48:13.245Z,11.30
2022-10-24T13:49:12.233Z,11.60
2022-10-24T13:50:12.136Z,11.20
2022-10-24T13:51:12.218Z,11.30
2022-10-24T13:52:11.943Z,11.30
2022-10-24T13:53:11.880Z,11.70
2022-10-24T13:54:11.754Z,11.60
2022-10-24T13:56:11.583Z,11.40
2022-10-24T13:57:11.476Z,11.20
2022-10-24T13:58:11.385Z,10.80
2022-10-24T13:59:11.297Z,11.70
2022-10-24T14:00:11.206Z,10.80
2022-10-24T14:01:11.168Z,11.50
2022-10-24T14:02:11.046Z,10.90
2022-10-24T14:03:10.984Z,11.30
2022-10-24T14:04:10.838Z,10.90
2022-10-24T14:05:10.746Z,10.60
2022-10-24T14:06:10.657Z,10.90
2022-10-24T14:07:10.569Z,10.80
2022-10-24T14:08:10.459Z,11.20
2022-10-24T14:09:10.381Z,11.50
2022-10-24T14:10:10.261Z,11.30
2022-10-24T14:11:10.180Z,10.60
2022-10-24T14:12:10.071Z,11.10
2022-10-24T14:13:09.971Z,11.60
2022-10-24T14:14:13.095Z,11.60
2022-10-24T14:15:09.786Z,11.20
2022-10-24T14:16:09.672Z,12.40
2022-10-24T14:17:09.591Z,11.80
2022-10-24T14:18:09.524Z,12.40
2022-10-24T14:19:10.924Z,11.60
2022-10-24T14:20:09.284Z,11.20
2022-10-24T14:21:09.188Z,11.20
2022-10-24T14:22:09.093Z,12.20
2022-10-24T14:23:08.994Z,11.70
2022-10-24T14:24:08.902Z,11.50
2022-10-24T14:25:08.784Z,12.50
2022-10-24T14:26:08.690Z,11.80
2022-10-24T14:27:08.594Z,11.60
2022-10-24T14:28:08.495Z,11.70
2022-10-24T14:29:08.401Z,12.50
2022-10-24T14:30:08.287Z,12.10
2022-10-24T14:31:08.177Z,12.00
2022-10-24T14:32:08.103Z,11.90
2022-10-24T14:33:07.990Z,12.40
2022-10-24T14:34:07.878Z,12.20
2022-10-24T14:35:07.778Z,11.90
2022-10-24T14:36:07.688Z,11.30
2022-10-24T14:37:07.607Z,12.50
2022-10-24T14:38:09.635Z,12.90
2022-10-24T14:39:07.396Z,12.30
2022-10-24T14:40:07.315Z,12.40
2022-10-24T14:41:09.404Z,13.10
2022-10-24T14:42:07.100Z,12.00
2022-10-24T14:43:07.084Z,13.50
2022-10-24T14:44:06.911Z,13.00
2022-10-24T14:45:06.934Z,12.90
2022-10-24T14:46:06.717Z,12.40
2022-10-24T14:47:06.613Z,12.40
2022-10-24T14:48:06.520Z,12.20
2022-10-24T14:49:06.437Z,12.30
2022-10-24T14:50:06.323Z,12.30
2022-10-24T14:51:06.222Z,13.20
2022-10-24T14:52:06.126Z,13.10
2022-10-24T14:53:06.048Z,11.90
2022-10-24T14:54:05.945Z,12.50
2022-10-24T14:55:05.833Z,12.00
2022-10-24T14:56:05.738Z,12.30
2022-10-24T14:57:08.213Z,12.70
2022-10-24T14:58:05.535Z,12.50
2022-10-24T14:59:05.439Z,11.80
2022-10-24T15:00:05.552Z,12.40
2022-10-24T15:01:05.261Z,12.70
2022-10-24T15:02:05.206Z,12.30
2022-10-24T15:03:05.047Z,12.50
2022-10-24T15:04:04.959Z,13.10
2022-10-24T15:05:04.828Z,12.00
2022-10-24T15:06:04.772Z,11.30
2022-10-24T15:07:04.651Z,12.10
2022-10-24T15:08:21.423Z,11.40
2022-10-24T15:09:05.444Z,11.60
2022-10-24T15:10:06.839Z,11.50
2022-10-24T15:11:04.218Z,11.70
2022-10-24T15:12:04.119Z,11.60
2022-10-24T15:13:04.012Z,11.60
2022-10-24T15:14:07.316Z,11.80
2022-10-24T15:15:03.812Z,11.60
2022-10-24T15:16:03.712Z,11.90
2022-10-24T15:17:03.615Z,11.90
2022-10-24T15:18:03.526Z,11.20
2022-10-24T15:19:03.412Z,11.80
2022-10-24T15:20:03.463Z,11.00
2022-10-24T15:21:03.193Z,11.20
2022-10-24T15:22:03.111Z,12.50
2022-10-24T15:23:02.994Z,11.40
2022-10-24T15:24:02.905Z,11.20
2022-10-24T15:25:02.785Z,11.30
2022-10-24T15:26:02.695Z,11.70
2022-10-24T15:27:02.603Z,11.70
2022-10-24T15:28:02.501Z,11.60
2022-10-24T15:29:02.407Z,12.00
2022-10-24T15:30:02.325Z,11.70
2022-10-24T15:31:02.205Z,11.90
2022-10-24T15:32:02.120Z,11.30
2022-10-24T15:33:02.006Z,10.90
2022-10-24T15:34:01.938Z,11.80
2022-10-24T15:35:01.830Z,13.10
2022-10-24T15:36:04.228Z,14.00
2022-10-24T15:37:01.628Z,12.90
2022-10-24T15:38:01.530Z,12.00
2022-10-24T15:39:01.432Z,12.20
2022-10-24T15:40:01.402Z,11.80
2022-10-24T15:41:01.239Z,11.40
2022-10-24T15:42:01.185Z,11.70
2022-10-24T15:43:01.052Z,13.00
2022-10-24T15:44:00.948Z,13.60
2022-10-24T15:45:00.851Z,13.70
2022-10-24T15:46:00.752Z,12.60
2022-10-24T15:47:00.650Z,11.90
2022-10-24T15:48:00.562Z,11.50
2022-10-24T15:49:00.454Z,9.40
2022-10-24T15:50:00.457Z,9.50
2022-10-24T15:51:00.264Z,9.00
2022-10-24T15:52:00.182Z,9.40
2022-10-24T15:53:00.079Z,9.70
2022-10-24T15:53:59.985Z,9.20
2022-10-24T15:54:59.884Z,8.70
2022-10-24T15:55:59.808Z,8.60
2022-10-24T15:57:04.244Z,8.30
2022-10-24T15:58:00.603Z,9.10
2022-10-24T15:58:59.505Z,9.60
2022-10-24T15:59:59.419Z,9.30
2022-10-24T16:00:59.386Z,8.30
2022-10-24T16:01:59.265Z,8.50
2022-10-24T16:02:59.140Z,8.60
2022-10-24T16:03:59.037Z,8.80
2022-10-24T16:04:58.938Z,8.30
2022-10-24T16:05:58.859Z,8.30
2022-10-24T16:06:58.834Z,8.30
2022-10-24T16:07:58.672Z,8.60
2022-10-24T16:08:58.570Z,9.00
2022-10-24T16:09:58.487Z,8.60
2022-10-24T16:10:58.381Z,9.00
2022-10-24T16:11:58.278Z,8.00
2022-10-24T16:12:58.181Z,8.10
2022-10-24T16:13:58.101Z,8.40
2022-10-24T16:14:57.983Z,8.30
2022-10-24T16:15:57.900Z,7.60
2022-10-24T16:16:58.568Z,8.00
2022-10-24T16:17:57.694Z,8.20
2022-10-24T16:18:57.583Z,8.30
2022-10-24T16:19:57.494Z,8.00
2022-10-24T16:20:57.402Z,8.30
2022-10-24T16:21:57.284Z,8.60
2022-10-24T16:22:57.177Z,7.60
2022-10-24T16:23:57.107Z,8.60
2022-10-24T16:24:56.974Z,8.00
2022-10-24T16:25:56.891Z,8.00
2022-10-24T16:26:56.769Z,7.70
2022-10-24T16:27:56.670Z,8.50
2022-10-24T16:28:56.567Z,7.60
2022-10-24T16:29:56.484Z,7.50
2022-10-24T16:30:56.377Z,7.80
2022-10-24T16:31:56.296Z,8.50
2022-10-24T16:32:56.197Z,7.50
2022-10-24T16:33:56.106Z,8.30
2022-10-24T16:34:56.028Z,8.60
2022-10-24T16:35:55.940Z,8.70
2022-10-24T16:36:55.862Z,8.60
2022-10-24T16:37:55.770Z,8.30
2022-10-24T16:38:55.672Z,8.10
2022-10-24T16:39:55.576Z,8.90
2022-10-24T16:40:55.483Z,8.70
2022-10-24T16:41:55.424Z,8.70
2022-10-24T16:42:55.304Z,8.00
2022-10-24T16:43:55.221Z,8.50
2022-10-24T16:44:55.116Z,8.80
2022-10-24T16:45:55.023Z,8.30
2022-10-24T16:46:54.934Z,7.60
2022-10-24T16:47:54.858Z,8.30
2022-10-24T16:48:54.818Z,8.60
2022-10-24T16:49:54.638Z,8.40
2022-10-24T16:50:54.553Z,8.50
2022-10-24T16:51:54.457Z,8.70
2022-10-24T16:52:54.376Z,8.40
2022-10-24T16:53:54.266Z,8.80
2022-10-24T16:54:54.158Z,9.30
2022-10-24T16:55:54.058Z,8.80
2022-10-24T16:56:54.337Z,8.20
2022-10-24T16:57:53.879Z,8.20
2022-10-24T16:58:53.754Z,8.30
2022-10-24T16:59:53.657Z,8.60
2022-10-24T17:00:53.611Z,8.70
2022-10-24T17:01:53.540Z,8.50
2022-10-24T17:02:53.532Z,8.80
2022-10-24T17:03:53.249Z,8.70
2022-10-24T17:04:53.166Z,8.80
2022-10-24T17:05:53.095Z,9.20
2022-10-24T17:06:52.951Z,9.00
2022-10-24T17:07:52.865Z,9.20
2022-10-24T17:08:52.755Z,8.70
2022-10-24T17:09:52.651Z,8.90
2022-10-24T17:10:52.554Z,8.70
2022-10-24T17:11:52.499Z,9.00
2022-10-24T17:12:52.379Z,9.00
2022-10-24T17:13:52.265Z,9.10
2022-10-24T17:14:52.184Z,8.60
2022-10-24T17:15:52.074Z,9.70
2022-10-24T17:16:51.984Z,9.10
2022-10-24T17:17:51.885Z,9.80
2022-10-24T17:19:05.432Z,8.90
2022-10-24T17:19:52.697Z,9.20
2022-10-24T17:20:51.598Z,9.20
2022-10-24T17:21:51.502Z,8.80
2022-10-24T17:22:51.387Z,8.00
2022-10-24T17:23:51.308Z,8.90
2022-10-24T17:24:51.199Z,8.60
2022-10-24T17:25:51.109Z,8.50
2022-10-24T17:26:51.008Z,9.00
2022-10-24T17:27:50.901Z,9.20
2022-10-24T17:28:50.824Z,9.50
2022-10-24T17:29:50.711Z,8.40
2022-10-24T17:30:50.642Z,8.30
2022-10-24T17:31:50.521Z,8.40
2022-10-24T17:32:50.442Z,8.50
2022-10-24T17:33:50.331Z,8.20